AAL224 KCAE-KCLT
Flight info
| Callsign | AAL224 |
|---|---|
| Flight time | N/A |
| Altitude | 27000 |
| Route | KCAE RUDKY KCLT |
| Aircraft | B737/M-V/N |
Departure
| Time | 2026-04-24 02:57 |
|---|---|
| Airport | Columbia Metropolitan Airport (KCAE) |
Arrival
| Time | N/A |
|---|---|
| Airport | Charlotte Douglas International Airport (KCLT) |
| Time | Latitude | Longitude | Altitude | Speed | Heading |
|---|---|---|---|---|---|
| 2026-04-24 02:56 | 33.93825 | -81.11066 | 240 ft | 0 kts | 284° |
| 2026-04-24 02:56 | 33.93831 | -81.11095 | 237 ft | 14 kts | 284° |
| 2026-04-24 02:57 | 33.93927 | -81.11557 | 237 ft | 99 kts | 284° |
| 2026-04-24 02:57 | 33.94168 | -81.12658 | 263 ft | 165 kts | 285° |
| 2026-04-24 02:57 | 33.94448 | -81.13976 | 1201 ft | 160 kts | 284° |
| 2026-04-24 02:57 | 33.94735 | -81.15306 | 2070 ft | 169 kts | 285° |
| 2026-04-24 02:58 | 33.95192 | -81.16710 | 2655 ft | 198 kts | 303° |
| 2026-04-24 02:58 | 33.96363 | -81.17729 | 2899 ft | 225 kts | 346° |
| 2026-04-24 02:58 | 33.97958 | -81.17594 | 3258 ft | 239 kts | 15° |
| 2026-04-24 02:58 | 33.99627 | -81.17027 | 3528 ft | 259 kts | 14° |
| 2026-04-24 02:59 | 34.01408 | -81.16493 | 4153 ft | 267 kts | 12° |
| 2026-04-24 02:59 | 34.03228 | -81.16027 | 5003 ft | 268 kts | 10° |
| 2026-04-24 02:59 | 34.05066 | -81.15631 | 5822 ft | 270 kts | 8° |
| 2026-04-24 02:59 | 34.06935 | -81.15287 | 6585 ft | 273 kts | 7° |
| 2026-04-24 03:00 | 34.08831 | -81.14982 | 7341 ft | 276 kts | 6° |
| 2026-04-24 03:00 | 34.10751 | -81.14707 | 8089 ft | 279 kts | 6° |
| 2026-04-24 03:00 | 34.12694 | -81.14453 | 8821 ft | 283 kts | 5° |
| 2026-04-24 03:00 | 34.14661 | -81.14213 | 9550 ft | 286 kts | 5° |
| 2026-04-24 03:01 | 34.16649 | -81.13983 | 10247 ft | 290 kts | 5° |
| 2026-04-24 03:01 | 34.18724 | -81.13752 | 10505 ft | 311 kts | 5° |
| 2026-04-24 03:01 | 34.20931 | -81.13513 | 10951 ft | 321 kts | 5° |
| 2026-04-24 03:01 | 34.23180 | -81.13273 | 11537 ft | 328 kts | 4° |
| 2026-04-24 03:02 | 34.25476 | -81.13032 | 12119 ft | 334 kts | 4° |
| 2026-04-24 03:02 | 34.27811 | -81.12789 | 12700 ft | 340 kts | 4° |
| 2026-04-24 03:02 | 34.30181 | -81.12544 | 13279 ft | 345 kts | 4° |
| 2026-04-24 03:02 | 34.32595 | -81.12295 | 13860 ft | 350 kts | 4° |
| 2026-04-24 03:03 | 34.35035 | -81.12044 | 14439 ft | 354 kts | 4° |
| 2026-04-24 03:03 | 34.37508 | -81.11790 | 14952 ft | 360 kts | 4° |
| 2026-04-24 03:03 | 34.39970 | -81.11537 | 14985 ft | 360 kts | 4° |
| 2026-04-24 03:03 | 34.42477 | -81.11279 | 15010 ft | 366 kts | 4° |
| 2026-04-24 03:04 | 34.45068 | -81.11013 | 15022 ft | 382 kts | 4° |
| 2026-04-24 03:04 | 34.47775 | -81.10734 | 15027 ft | 398 kts | 4° |
| 2026-04-24 03:04 | 34.50582 | -81.10444 | 15024 ft | 412 kts | 5° |
| 2026-04-24 03:04 | 34.53447 | -81.10147 | 15012 ft | 414 kts | 5° |
| 2026-04-24 03:05 | 34.56319 | -81.09849 | 15004 ft | 415 kts | 5° |
| 2026-04-24 03:05 | 34.59197 | -81.09551 | 14999 ft | 414 kts | 5° |
| 2026-04-24 03:05 | 34.62066 | -81.09255 | 15002 ft | 414 kts | 4° |
| 2026-04-24 03:05 | 34.64934 | -81.08959 | 15002 ft | 414 kts | 4° |
| 2026-04-24 03:06 | 34.67807 | -81.08662 | 15003 ft | 414 kts | 4° |
| 2026-04-24 03:06 | 34.70673 | -81.08366 | 15006 ft | 414 kts | 4° |
| 2026-04-24 03:06 | 34.73542 | -81.08070 | 15009 ft | 414 kts | 4° |
| 2026-04-24 03:06 | 34.76412 | -81.07773 | 14914 ft | 411 kts | 4° |
| 2026-04-24 03:07 | 34.79242 | -81.07480 | 14322 ft | 408 kts | 4° |
| 2026-04-24 03:07 | 34.82066 | -81.07187 | 13652 ft | 406 kts | 5° |
| 2026-04-24 03:07 | 34.84871 | -81.06896 | 12983 ft | 404 kts | 5° |
| 2026-04-24 03:07 | 34.87643 | -81.06608 | 12301 ft | 395 kts | 4° |
| 2026-04-24 03:08 | 34.90340 | -81.06328 | 11617 ft | 383 kts | 4° |
| 2026-04-24 03:08 | 34.95486 | -81.05795 | 11116 ft | 358 kts | 4° |
| 2026-04-24 03:08 | 34.97923 | -81.05542 | 11010 ft | 345 kts | 4° |
| 2026-04-24 03:09 | 35.00267 | -81.05299 | 10987 ft | 330 kts | 4° |
| 2026-04-24 03:09 | 35.02508 | -81.05067 | 10979 ft | 316 kts | 4° |
| 2026-04-24 03:09 | 35.04652 | -81.04848 | 10980 ft | 303 kts | 4° |
| 2026-04-24 03:09 | 35.06707 | -81.04636 | 10985 ft | 292 kts | 4° |
| 2026-04-24 03:10 | 35.08722 | -81.04426 | 10991 ft | 290 kts | 4° |
| 2026-04-24 03:10 | 35.10735 | -81.04215 | 11010 ft | 292 kts | 4° |
| 2026-04-24 03:10 | 35.12762 | -81.04004 | 11012 ft | 293 kts | 4° |
| 2026-04-24 03:10 | 35.14798 | -81.03793 | 11011 ft | 294 kts | 4° |
| 2026-04-24 03:11 | 35.16846 | -81.03581 | 11009 ft | 295 kts | 4° |
| 2026-04-24 03:11 | 35.18896 | -81.03398 | 11006 ft | 296 kts | 359° |
| 2026-04-24 03:11 | 35.20957 | -81.03507 | 10923 ft | 297 kts | 356° |
| 2026-04-24 03:11 | 35.23081 | -81.03656 | 10246 ft | 310 kts | 356° |
| 2026-04-24 03:12 | 35.25232 | -81.03809 | 9617 ft | 310 kts | 355° |
| 2026-04-24 03:12 | 35.27381 | -81.03963 | 9013 ft | 310 kts | 355° |
| 2026-04-24 03:12 | 35.29565 | -81.04119 | 8405 ft | 317 kts | 355° |
| 2026-04-24 03:12 | 35.31791 | -81.04280 | 7780 ft | 324 kts | 355° |
| 2026-04-24 03:13 | 35.34059 | -81.04447 | 7171 ft | 329 kts | 356° |
| 2026-04-24 03:13 | 35.36358 | -81.04619 | 6552 ft | 334 kts | 356° |
| 2026-04-24 03:13 | 35.38688 | -81.04795 | 5928 ft | 337 kts | 356° |
| 2026-04-24 03:13 | 35.41040 | -81.04973 | 5301 ft | 340 kts | 356° |
| 2026-04-24 03:14 | 35.43416 | -81.05154 | 4673 ft | 343 kts | 356° |
| 2026-04-24 03:14 | 35.45790 | -81.05334 | 4218 ft | 340 kts | 356° |
| 2026-04-24 03:14 | 35.48110 | -81.05512 | 4067 ft | 327 kts | 356° |
| 2026-04-24 03:14 | 35.50325 | -81.05416 | 3991 ft | 313 kts | 13° |
| 2026-04-24 03:15 | 35.52242 | -81.04343 | 3986 ft | 295 kts | 37° |
| 2026-04-24 03:15 | 35.53495 | -81.02538 | 3993 ft | 273 kts | 63° |
| 2026-04-24 03:15 | 35.54010 | -81.00362 | 4018 ft | 254 kts | 79° |
| 2026-04-24 03:15 | 35.54262 | -80.98293 | 3993 ft | 242 kts | 81° |
| 2026-04-24 03:16 | 35.54299 | -80.96266 | 3978 ft | 228 kts | 104° |
| 2026-04-24 03:16 | 35.53572 | -80.94634 | 4022 ft | 217 kts | 137° |
| 2026-04-24 03:16 | 35.52749 | -80.93965 | 4021 ft | 216 kts | 159° |
| 2026-04-24 03:16 | 35.50815 | -80.93945 | 4030 ft | 215 kts | 198° |
| 2026-04-24 03:17 | 35.49407 | -80.94603 | 4018 ft | 218 kts | 201° |
| 2026-04-24 03:17 | 35.48003 | -80.95307 | 4011 ft | 219 kts | 201° |
| 2026-04-24 03:17 | 35.46595 | -80.96020 | 3999 ft | 219 kts | 201° |
| 2026-04-24 03:17 | 35.45189 | -80.96734 | 3994 ft | 218 kts | 204° |
| 2026-04-24 03:18 | 35.44246 | -80.97219 | 4006 ft | 217 kts | 200° |
| 2026-04-24 03:18 | 35.42761 | -80.97497 | 4004 ft | 217 kts | 179° |
| 2026-04-24 03:18 | 35.41267 | -80.97538 | 3995 ft | 213 kts | 185° |
| 2026-04-24 03:18 | 35.39783 | -80.97697 | 4018 ft | 215 kts | 185° |
| 2026-04-24 03:19 | 35.38289 | -80.97871 | 4015 ft | 216 kts | 186° |
| 2026-04-24 03:19 | 35.36805 | -80.98021 | 3993 ft | 217 kts | 183° |
| 2026-04-24 03:19 | 35.35260 | -80.98011 | 3837 ft | 223 kts | 178° |
| 2026-04-24 03:19 | 35.33721 | -80.97880 | 3364 ft | 219 kts | 175° |
| 2026-04-24 03:20 | 35.32246 | -80.97709 | 2997 ft | 208 kts | 175° |
| 2026-04-24 03:20 | 35.30838 | -80.97553 | 2586 ft | 197 kts | 175° |
| 2026-04-24 03:20 | 35.29506 | -80.97373 | 2221 ft | 189 kts | 174° |
| 2026-04-24 03:20 | 35.28226 | -80.97196 | 1927 ft | 186 kts | 175° |
| 2026-04-24 03:21 | 35.26935 | -80.97093 | 1721 ft | 184 kts | 178° |
| 2026-04-24 03:21 | 35.25643 | -80.97025 | 1455 ft | 186 kts | 177° |
| 2026-04-24 03:21 | 35.24361 | -80.96906 | 1097 ft | 189 kts | 175° |
| 2026-04-24 03:21 | 35.23073 | -80.96780 | 849 ft | 179 kts | 178° |
| 2026-04-24 03:22 | 35.21890 | -80.96682 | 721 ft | 159 kts | 176° |